Nearby METAR Reports

 

CYYY - Mont Joli Airpor, Quebec, Canada
Distance from station: NE 44km
Mise à jour: Tue, 16-Jan-2018 4:00am EST
nuageux
nuageux
 Wind from SSE
Vent: SSE 9 km/h
Température: -18°C
Facteur vent: -24°C
Point de rosée: -21°C
Humidité: 78%
Baromètre: 1036.2 hPa
Clouds: nuageux
Visibility: 24 km
Cloud details: Few Clouds 488 m
nuageux 4877 m
2018/01/16 09:00 CYYY 160900Z 15005KT 15SM FEW016 BKN160 M18/M21 A3060 RMK SC1AC6 SLP369
CWZS - Amqui, Quebec, Canada
Distance from station: E 94km
Mise à jour: Tue, 16-Jan-2018 4:00am EST

 Wind from N
Vent: N 2 km/h
Température: -25°C
Point de rosée: -28°C
Humidité: 76%
2018/01/16 09:00 CWZS 160900Z AUTO 36001KT M25/M28 RMK AO1 SLP368 T12541280 58023
 
CWQO - Ile Bicquette, Quebec, Canada
Distance from station: ONO 15km
Mise à jour: Tue, 16-Jan-2018 4:00am EST

 Wind from E
Vent: E 4 km/h
Température: -14°C
Point de rosée: -17°C
Humidité: 78%
2018/01/16 09:00 CWQO 160900Z AUTO 10002KT M14/M17 RMK AO1 T11401169
CWNH - Riviere Du Loup, Quebec, Canada
Distance from station: SO 90km
Mise à jour: Tue, 16-Jan-2018 4:00am EST

 Wind from calm
Vent: calme
Température: -20°C
Point de rosée: -22°C
Humidité: 84%
2018/01/16 09:00 CWNH 160900Z AUTO 00000KT M20/M22 RMK AO1 SOG 22 8023 SLP363 T11951217
 
CWAF - Ile Rouge(Maps), Quebec, Canada
Distance from station: OSO 70km
Mise à jour: Tue, 16-Jan-2018 4:00am EST

 Wind from E
Vent: E 7 km/h
Température: -14°C
Facteur vent: -19°C
Point de rosée: -15°C
Humidité: 92%
2018/01/16 09:00 CWAF 160900Z AUTO 09004KT M14/M15 RMK AO1 T11391153
CYBC - Baie Comeau Airp, Quebec, Canada
Distance from station: NNE 90km
Mise à jour: Tue, 16-Jan-2018 4:13am EST
Light snow, couvert
Light snow, couvert
 Wind from N
Vent: N 11 km/h
Température: -17°C
Facteur vent: -24°C
Point de rosée: -19°C
Humidité: 85%
Baromètre: 1036.9 hPa
Résumé: Light Snow
Clouds: couvert
Visibility: 14 km
Cloud details: couvert 762 m
2018/01/16 09:13 CYBC 160913Z AUTO 35006KT 310V010 9SM -SN OVC025 M17/M19 A3062 RMK SLP373